No particular awareness of the weather is required.    There are no Weather-warnings


Meteo18 Weather Cam more information Meteo18 Weather Cam


Thunder radar more information blitzortung!


Rain radar more information rain snow radar


Visit our other weather sites:

Template documentation
and downloads

And another site



Weather Underground History page Text

Daily Summary for January 31, 2017 Units:  Metric    English   Both
« Previous Day
Next Day »
Daily Weekly Monthly Yearly Custom
  High: Low: Average:
Temperature: 12.3 °C 7.8 °C 9.4 °C
Dew Point: 11.4 °C 7.5 °C 9 °C
Humidity: 98 % 94 % 97 %
Wind Speed: 9.7 km/h 0.0 km/h 2.2 km/h
Wind Gust: 16.1 km/h - -
Wind:- - SW
Pressure: 1017.2 hPa 1015.5 hPa -
Precipitation: 0.8 mm    
Historical Graphs
 
 
Tabular Data for January 31, 2017
Time Temperature Dew Point Pressure Wind Wind Speed Wind Gust Humidity Rainfall Rate (Hourly)
00:02 8.7 °C 8.4 °C 1016.8 hPa SSW 4.8 km/h 16.1 km/h 98 % 1.0 mm
00:12 8.4 °C 8.1 °C 1016.8 hPa South 4.8 km/h 12.9 km/h 98 % 0.8 mm
00:17 8.4 °C 8.1 °C 1016.8 hPa South 4.8 km/h 12.9 km/h 98 % 0.5 mm
00:22 8.4 °C 8.1 °C 1016.5 hPa SSW 3.2 km/h 12.9 km/h 98 % 0.5 mm
00:32 8.3 °C 8.0 °C 1016.5 hPa SSE 1.6 km/h 8.0 km/h 98 % 0.5 mm
00:37 8.4 °C 8.1 °C 1016.5 hPa South 1.6 km/h 4.8 km/h 98 % 0.3 mm
00:42 8.4 °C 8.1 °C 1016.5 hPa Calm   4.8 km/h 98 % 0.3 mm
00:52 8.3 °C 8.0 °C 1016.5 hPa SSW 1.6 km/h 3.2 km/h 98 % 0.3 mm
01:02 8.3 °C 8.0 °C 1016.5 hPa Calm   3.2 km/h 98 % 0.3 mm
01:12 8.3 °C 8.0 °C 1016.5 hPa Calm   1.6 km/h 98 % 0.3 mm
01:17 8.3 °C 8.0 °C 1016.5 hPa Calm   3.2 km/h 98 % 0.0 mm
01:22 8.3 °C 8.0 °C 1016.5 hPa South 1.6 km/h 3.2 km/h 98 % 0.0 mm
01:27 8.3 °C 8.0 °C 1016.5 hPa SSW 1.6 km/h 3.2 km/h 98 % 0.0 mm
01:32 8.2 °C 7.9 °C 1016.5 hPa SSW 1.6 km/h 3.2 km/h 98 % 0.0 mm
01:37 8.2 °C 7.9 °C 1016.5 hPa SSW 3.2 km/h 4.8 km/h 98 % 0.0 mm
01:42 8.2 °C 7.9 °C 1016.5 hPa SW 4.8 km/h 4.8 km/h 98 % 0.0 mm
01:52 8.3 °C 8.0 °C 1016.1 hPa Calm   4.8 km/h 98 % 0.0 mm
01:57 8.3 °C 8.0 °C 1016.1 hPa Calm   6.4 km/h 98 % 0.0 mm
02:02 8.2 °C 7.9 °C 1016.1 hPa Calm   6.4 km/h 98 % 0.0 mm
02:12 8.2 °C 7.9 °C 1016.1 hPa Calm   3.2 km/h 98 % 0.0 mm
02:17 8.2 °C 7.9 °C 1016.1 hPa SSE 1.6 km/h 3.2 km/h 98 % 0.0 mm
02:22 8.2 °C 7.9 °C 1016.1 hPa South 3.2 km/h 3.2 km/h 98 % 0.0 mm
02:32 8.2 °C 7.9 °C 1016.1 hPa SW 4.8 km/h 4.8 km/h 98 % 0.0 mm
02:37 8.2 °C 7.9 °C 1016.1 hPa SW 3.2 km/h 4.8 km/h 98 % 0.0 mm
02:42 8.1 °C 7.8 °C 1016.1 hPa SSW 1.6 km/h 4.8 km/h 98 % 0.0 mm
02:47 8.0 °C 7.7 °C 1016.1 hPa SW 1.6 km/h 6.4 km/h 98 % 0.0 mm
02:52 8.1 °C 7.8 °C 1016.1 hPa Calm   6.4 km/h 98 % 0.0 mm
02:57 8.1 °C 7.8 °C 1016.1 hPa Calm   3.2 km/h 98 % 0.0 mm
03:02 8.1 °C 7.8 °C 1016.1 hPa South 1.6 km/h 3.2 km/h 98 % 0.0 mm
03:12 8.1 °C 7.8 °C 1016.1 hPa SW 1.6 km/h 3.2 km/h 98 % 0.0 mm
03:17 8.1 °C 7.8 °C 1016.1 hPa SW 1.6 km/h 3.2 km/h 98 % 0.0 mm
03:22 8.1 °C 7.8 °C 1016.1 hPa SSW 1.6 km/h 3.2 km/h 98 % 0.0 mm
03:27 8.1 °C 7.8 °C 1016.1 hPa SSW 3.2 km/h 3.2 km/h 98 % 0.0 mm
03:32 8.1 °C 7.8 °C 1016.1 hPa SSW 1.6 km/h 3.2 km/h 98 % 0.0 mm
03:37 8.0 °C 7.7 °C 1016.1 hPa SSW 1.6 km/h 3.2 km/h 98 % 0.0 mm
03:42 8.0 °C 7.7 °C 1016.1 hPa SSW 4.8 km/h 4.8 km/h 98 % 0.0 mm
03:47 7.9 °C 7.6 °C 1015.8 hPa SSW 1.6 km/h 4.8 km/h 98 % 0.0 mm
03:52 7.8 °C 7.5 °C 1015.8 hPa SSW 3.2 km/h 4.8 km/h 98 % 0.0 mm
03:57 7.8 °C 7.5 °C 1015.8 hPa SSW 3.2 km/h 6.4 km/h 98 % 0.0 mm
04:02 7.8 °C 7.5 °C 1015.8 hPa SSW 4.8 km/h 8.0 km/h 98 % 0.0 mm
04:12 7.8 °C 7.5 °C 1015.8 hPa SW 8.0 km/h 8.0 km/h 98 % 0.0 mm
04:17 7.8 °C 7.5 °C 1015.8 hPa SSW 4.8 km/h 8.0 km/h 98 % 0.0 mm
04:22 7.8 °C 7.5 °C 1015.8 hPa SSW 6.4 km/h 8.0 km/h 98 % 0.0 mm
04:27 7.8 °C 7.5 °C 1015.8 hPa SSW 4.8 km/h 8.0 km/h 98 % 0.0 mm
04:32 7.9 °C 7.6 °C 1015.8 hPa SSW 6.4 km/h 8.0 km/h 98 % 0.0 mm
04:37 7.9 °C 7.6 °C 1015.8 hPa SSW 4.8 km/h 9.7 km/h 98 % 0.0 mm
04:42 7.9 °C 7.6 °C 1015.5 hPa SSW 6.4 km/h 9.7 km/h 98 % 0.0 mm
04:47 7.9 °C 7.6 °C 1015.5 hPa South 4.8 km/h 9.7 km/h 98 % 0.0 mm
04:52 7.9 °C 7.6 °C 1015.5 hPa SSW 4.8 km/h 9.7 km/h 98 % 0.0 mm
04:57 7.9 °C 7.6 °C 1015.5 hPa SSW 3.2 km/h 8.0 km/h 98 % 0.3 mm
05:02 8.1 °C 7.8 °C 1015.5 hPa SSW 4.8 km/h 8.0 km/h 98 % 0.3 mm
05:12 8.0 °C 7.7 °C 1015.5 hPa SSW 1.6 km/h 9.7 km/h 98 % 0.3 mm
05:17 8.0 °C 7.7 °C 1015.5 hPa South 4.8 km/h 8.0 km/h 98 % 0.3 mm
05:22 8.1 °C 7.8 °C 1015.5 hPa South 3.2 km/h 8.0 km/h 98 % 0.3 mm
05:27 8.1 °C 7.8 °C 1015.5 hPa SSW 1.6 km/h 6.4 km/h 98 % 0.3 mm
05:32 8.1 °C 7.8 °C 1015.8 hPa South 3.2 km/h 6.4 km/h 98 % 0.3 mm
05:37 8.1 °C 7.8 °C 1015.5 hPa SSE 3.2 km/h 4.8 km/h 98 % 0.3 mm
05:42 8.1 °C 7.8 °C 1015.5 hPa Calm   4.8 km/h 98 % 0.3 mm
05:47 8.1 °C 7.8 °C 1015.5 hPa SSE 1.6 km/h 4.8 km/h 98 % 0.3 mm
05:52 8.1 °C 7.8 °C 1015.5 hPa SSW 3.2 km/h 4.8 km/h 98 % 0.3 mm
06:02 8.1 °C 7.8 °C 1015.5 hPa South 3.2 km/h 6.4 km/h 98 % 0.0 mm
06:07 8.1 °C 7.8 °C 1015.5 hPa SSW 3.2 km/h 6.4 km/h 98 % 0.0 mm
06:12 8.1 °C 7.8 °C 1015.5 hPa SSW 4.8 km/h 6.4 km/h 98 % 0.0 mm
06:17 8.1 °C 7.8 °C 1015.5 hPa SSW 3.2 km/h 6.4 km/h 98 % 0.3 mm
06:22 8.1 °C 7.8 °C 1015.5 hPa SSW 3.2 km/h 6.4 km/h 98 % 0.3 mm
06:32 8.1 °C 7.8 °C 1015.5 hPa SSW 6.4 km/h 6.4 km/h 98 % 0.3 mm
06:42 8.1 °C 7.8 °C 1015.5 hPa SSW 3.2 km/h 8.0 km/h 98 % 0.3 mm
06:47 8.1 °C 7.8 °C 1015.5 hPa SSW 3.2 km/h 8.0 km/h 98 % 0.3 mm
06:52 8.1 °C 7.8 °C 1015.5 hPa SW 4.8 km/h 8.0 km/h 98 % 0.3 mm
06:57 8.1 °C 7.8 °C 1015.5 hPa SSW 3.2 km/h 8.0 km/h 98 % 0.3 mm
07:02 8.1 °C 7.8 °C 1015.5 hPa SSW 6.4 km/h 8.0 km/h 98 % 0.3 mm
07:12 8.0 °C 7.7 °C 1015.5 hPa SW 6.4 km/h 6.4 km/h 98 % 0.3 mm
07:17 8.0 °C 7.7 °C 1015.5 hPa SSW 4.8 km/h 8.0 km/h 98 % 0.0 mm
07:22 8.0 °C 7.7 °C 1015.5 hPa SW 4.8 km/h 8.0 km/h 98 % 0.0 mm
07:32 8.1 °C 7.8 °C 1015.5 hPa SSW 8.0 km/h 9.7 km/h 98 % 0.0 mm
07:37 8.1 °C 7.8 °C 1015.5 hPa SW 4.8 km/h 9.7 km/h 98 % 0.0 mm
07:42 8.1 °C 7.8 °C 1015.5 hPa SSW 4.8 km/h 9.7 km/h 98 % 0.0 mm
07:47 8.1 °C 7.8 °C 1015.5 hPa SW 6.4 km/h 11.3 km/h 98 % 0.0 mm
07:52 8.1 °C 7.8 °C 1015.5 hPa SW 4.8 km/h 11.3 km/h 98 % 0.0 mm
07:57 8.1 °C 7.8 °C 1015.8 hPa SSW 3.2 km/h 11.3 km/h 98 % 0.0 mm
08:02 8.0 °C 7.7 °C 1015.5 hPa SSW 1.6 km/h 11.3 km/h 98 % 0.0 mm
08:07 8.1 °C 7.8 °C 1015.8 hPa SSE 1.6 km/h 6.4 km/h 98 % 0.0 mm
08:12 8.1 °C 7.8 °C 1015.8 hPa Calm   6.4 km/h 98 % 0.0 mm
08:17 8.1 °C 7.8 °C 1015.8 hPa SSE 1.6 km/h 4.8 km/h 98 % 0.0 mm
08:22 8.1 °C 7.8 °C 1015.8 hPa Calm   4.8 km/h 98 % 0.0 mm
08:32 8.1 °C 7.8 °C 1016.1 hPa Calm   1.6 km/h 98 % 0.0 mm
08:37 8.1 °C 7.8 °C 1016.1 hPa Calm   1.6 km/h 98 % 0.0 mm
08:42 8.1 °C 7.8 °C 1016.1 hPa SSW 4.8 km/h 4.8 km/h 98 % 0.0 mm
08:52 8.1 °C 7.8 °C 1016.1 hPa SSW 1.6 km/h 4.8 km/h 98 % 0.0 mm
08:57 8.1 °C 7.8 °C 1016.1 hPa Calm   4.8 km/h 98 % 0.0 mm
09:02 8.1 °C 7.8 °C 1016.1 hPa Calm   4.8 km/h 98 % 0.0 mm
09:12 8.0 °C 7.7 °C 1016.1 hPa SSW 1.6 km/h 3.2 km/h 98 % 0.0 mm
09:17 8.0 °C 7.7 °C 1016.1 hPa SSW 1.6 km/h 3.2 km/h 98 % 0.0 mm
09:22 8.0 °C 7.7 °C 1016.1 hPa Calm   3.2 km/h 98 % 0.0 mm
09:32 8.0 °C 7.7 °C 1016.1 hPa South 1.6 km/h 3.2 km/h 98 % 0.0 mm
09:37 8.1 °C 7.8 °C 1016.1 hPa Calm   3.2 km/h 98 % 0.0 mm
09:42 8.1 °C 7.8 °C 1016.1 hPa Calm   3.2 km/h 98 % 0.0 mm
09:52 8.2 °C 7.9 °C 1016.1 hPa Calm   1.6 km/h 98 % 0.0 mm
10:02 8.2 °C 7.9 °C 1016.1 hPa SSW 1.6 km/h 1.6 km/h 98 % 0.0 mm
10:07 8.3 °C 8.0 °C 1016.5 hPa Calm   3.2 km/h 98 % 0.0 mm
10:12 8.3 °C 8.0 °C 1016.5 hPa Calm   3.2 km/h 98 % 0.0 mm
10:17 8.3 °C 8.0 °C 1016.5 hPa Calm   3.2 km/h 98 % 0.0 mm
10:22 8.4 °C 8.1 °C 1016.5 hPa SSW 3.2 km/h 3.2 km/h 98 % 0.0 mm
10:32 8.6 °C 8.3 °C 1016.5 hPa SSE 3.2 km/h 8.0 km/h 98 % 0.0 mm
10:42 8.7 °C 8.4 °C 1016.8 hPa WSW 3.2 km/h 8.0 km/h 98 % 0.0 mm
10:47 8.7 °C 8.4 °C 1016.8 hPa SW 6.4 km/h 9.7 km/h 98 % 0.3 mm
10:57 8.8 °C 8.5 °C 1016.8 hPa SW 6.4 km/h 11.3 km/h 98 % 0.3 mm
11:02 8.8 °C 8.5 °C 1016.8 hPa SSW 6.4 km/h 11.3 km/h 98 % 0.3 mm
11:07 8.9 °C 8.6 °C 1016.8 hPa WSW 6.4 km/h 9.7 km/h 98 % 0.3 mm
11:12 8.9 °C 8.6 °C 1016.8 hPa SW 3.2 km/h 9.7 km/h 98 % 0.3 mm
11:22 8.9 °C 8.6 °C 1016.8 hPa WSW 3.2 km/h 9.7 km/h 98 % 0.3 mm
11:32 9.1 °C 8.8 °C 1016.8 hPa Calm   11.3 km/h 98 % 0.3 mm
11:37 9.1 °C 8.8 °C 1016.8 hPa West 3.2 km/h 9.7 km/h 98 % 0.3 mm
11:42 9.2 °C 8.9 °C 1016.8 hPa SW 4.8 km/h 9.7 km/h 98 % 0.3 mm
11:47 9.2 °C 8.9 °C 1016.8 hPa SSW 6.4 km/h 9.7 km/h 98 % 0.0 mm
11:52 9.3 °C 9.0 °C 1016.8 hPa West 3.2 km/h 9.7 km/h 98 % 0.0 mm
11:57 9.3 °C 9.0 °C 1017.2 hPa SSW 6.4 km/h 11.3 km/h 98 % 0.0 mm
12:02 9.4 °C 9.1 °C 1016.8 hPa SW 3.2 km/h 11.3 km/h 98 % 0.0 mm
12:07 9.4 °C 9.1 °C 1016.8 hPa WSW 3.2 km/h 11.3 km/h 98 % 0.0 mm
12:12 9.5 °C 9.2 °C 1016.8 hPa SSW 6.4 km/h 11.3 km/h 98 % 0.0 mm
12:17 9.6 °C 9.3 °C 1017.2 hPa West 4.8 km/h 9.7 km/h 98 % 0.0 mm
12:22 9.6 °C 9.3 °C 1016.8 hPa WSW 3.2 km/h 9.7 km/h 98 % 0.0 mm
12:27 9.6 °C 9.3 °C 1016.8 hPa SW 3.2 km/h 9.7 km/h 98 % 0.0 mm
12:32 9.6 °C 9.3 °C 1016.8 hPa SW 8.0 km/h 9.7 km/h 98 % 0.0 mm
12:42 9.6 °C 9.3 °C 1016.8 hPa West 3.2 km/h 11.3 km/h 98 % 0.0 mm
12:47 9.6 °C 9.3 °C 1016.5 hPa WSW 8.0 km/h 11.3 km/h 98 % 0.0 mm
12:52 9.6 °C 9.3 °C 1016.5 hPa WSW 9.7 km/h 11.3 km/h 98 % 0.0 mm
13:02 9.5 °C 9.2 °C 1016.5 hPa West 4.8 km/h 11.3 km/h 98 % 0.0 mm
13:12 9.5 °C 9.2 °C 1016.5 hPa West 4.8 km/h 11.3 km/h 98 % 0.0 mm
13:17 9.6 °C 9.3 °C 1016.5 hPa WSW 8.0 km/h 14.5 km/h 98 % 0.0 mm
13:22 9.7 °C 9.4 °C 1016.1 hPa West 3.2 km/h 14.5 km/h 98 % 0.0 mm
13:27 9.7 °C 9.4 °C 1016.1 hPa WSW 4.8 km/h 14.5 km/h 98 % 0.0 mm
13:32 9.8 °C 9.5 °C 1016.1 hPa West 4.8 km/h 14.5 km/h 98 % 0.0 mm
13:37 9.8 °C 9.5 °C 1016.1 hPa West 3.2 km/h 9.7 km/h 98 % 0.0 mm
13:42 9.9 °C 9.6 °C 1016.1 hPa West 6.4 km/h 9.7 km/h 98 % 0.0 mm
13:47 10.1 °C 9.8 °C 1016.1 hPa WNW 3.2 km/h 9.7 km/h 98 % 0.0 mm
13:52 10.2 °C 9.9 °C 1016.1 hPa West 3.2 km/h 9.7 km/h 98 % 0.0 mm
13:57 10.3 °C 10.0 °C 1016.1 hPa West 3.2 km/h 9.7 km/h 98 % 0.0 mm
14:02 10.5 °C 10.2 °C 1016.1 hPa West 4.8 km/h 8.0 km/h 98 % 0.0 mm
14:12 10.8 °C 10.5 °C 1015.8 hPa WNW 4.8 km/h 9.7 km/h 98 % 0.0 mm
14:17 11.0 °C 10.7 °C 1015.8 hPa WNW 4.8 km/h 9.7 km/h 98 % 0.0 mm
14:22 11.2 °C 10.9 °C 1015.8 hPa West 4.8 km/h 9.7 km/h 98 % 0.0 mm
14:32 11.3 °C 11.0 °C 1015.8 hPa WNW 4.8 km/h 8.0 km/h 98 % 0.0 mm
14:37 11.3 °C 11.0 °C 1015.8 hPa Calm   8.0 km/h 98 % 0.0 mm
14:42 11.4 °C 11.1 °C 1015.8 hPa NW 6.4 km/h 8.0 km/h 98 % 0.0 mm
14:47 11.4 °C 11.1 °C 1015.8 hPa WSW 4.8 km/h 6.4 km/h 98 % 0.0 mm
14:52 11.5 °C 11.2 °C 1015.8 hPa West 1.6 km/h 6.4 km/h 98 % 0.0 mm
14:57 11.6 °C 11.3 °C 1015.8 hPa Calm   6.4 km/h 98 % 0.0 mm
15:02 11.6 °C 11.1 °C 1015.8 hPa West 4.8 km/h 6.4 km/h 97 % 0.0 mm
15:12 11.6 °C 11.1 °C 1015.8 hPa WSW 1.6 km/h 8.0 km/h 97 % 0.0 mm
15:17 11.6 °C 11.0 °C 1015.8 hPa WSW 8.0 km/h 9.7 km/h 96 % 0.0 mm
15:22 11.6 °C 11.0 °C 1015.8 hPa WSW 3.2 km/h 11.3 km/h 96 % 0.0 mm
15:27 11.6 °C 10.8 °C 1015.8 hPa SW 8.0 km/h 11.3 km/h 95 % 0.0 mm
15:32 11.6 °C 10.8 °C 1015.8 hPa WSW 4.8 km/h 11.3 km/h 95 % 0.0 mm
15:37 11.6 °C 10.8 °C 1015.8 hPa WSW 1.6 km/h 11.3 km/h 95 % 0.0 mm
15:42 11.7 °C 10.9 °C 1015.8 hPa WSW 4.8 km/h 11.3 km/h 95 % 0.0 mm
15:47 11.7 °C 10.9 °C 1015.8 hPa West 3.2 km/h 11.3 km/h 95 % 0.0 mm
15:52 11.8 °C 11.0 °C 1015.8 hPa WNW 4.8 km/h 11.3 km/h 95 % 0.0 mm
15:57 11.8 °C 11.0 °C 1015.8 hPa West 3.2 km/h 6.4 km/h 95 % 0.0 mm
16:02 11.8 °C 11.0 °C 1015.8 hPa Calm   6.4 km/h 95 % 0.0 mm
16:12 11.9 °C 11.1 °C 1015.8 hPa Calm   6.4 km/h 95 % 0.0 mm
16:17 12.0 °C 11.2 °C 1015.8 hPa Calm   4.8 km/h 95 % 0.0 mm
16:22 12.2 °C 11.4 °C 1015.8 hPa Calm   3.2 km/h 95 % 0.0 mm
16:32 12.3 °C 11.4 °C 1015.8 hPa Calm     94 % 0.0 mm
16:37 12.2 °C 11.3 °C 1015.8 hPa Calm     94 % 0.0 mm
16:42 12.1 °C 11.2 °C 1015.8 hPa Calm     94 % 0.0 mm
16:47 12.1 °C 11.2 °C 1015.8 hPa Calm     94 % 0.0 mm
16:52 12.1 °C 11.2 °C 1015.8 hPa Calm     94 % 0.0 mm
16:57 12.1 °C 11.2 °C 1015.8 hPa Calm     94 % 0.0 mm
17:02 12.1 °C 11.2 °C 1016.1 hPa Calm     94 % 0.0 mm
17:12 12.0 °C 11.2 °C 1016.1 hPa Calm   1.6 km/h 95 % 0.0 mm
17:17 12.0 °C 11.2 °C 1016.1 hPa Calm   1.6 km/h 95 % 0.0 mm
17:22 12.0 °C 11.2 °C 1016.1 hPa Calm     95 % 0.0 mm
17:27 11.9 °C 11.0 °C 1016.1 hPa Calm     94 % 0.0 mm
17:32 11.9 °C 11.1 °C 1016.1 hPa Calm     95 % 0.0 mm
17:37 11.8 °C 11.0 °C 1016.1 hPa Calm     95 % 0.0 mm
17:42 11.8 °C 11.0 °C 1016.1 hPa Calm     95 % 0.0 mm
17:47 11.7 °C 10.9 °C 1016.5 hPa Calm     95 % 0.0 mm
17:52 11.7 °C 10.9 °C 1016.5 hPa Calm     95 % 0.0 mm
17:57 11.6 °C 10.8 °C 1016.5 hPa Calm     95 % 0.0 mm
18:02 11.5 °C 10.7 °C 1016.5 hPa Calm     95 % 0.0 mm
18:07 11.4 °C 10.6 °C 1016.5 hPa Calm     95 % 0.0 mm
18:12 11.4 °C 10.6 °C 1016.5 hPa Calm     95 % 0.0 mm
18:17 11.3 °C 10.7 °C 1016.5 hPa Calm     96 % 0.0 mm
18:22 11.3 °C 10.7 °C 1016.5 hPa Calm     96 % 0.0 mm
18:32 11.1 °C 10.5 °C 1016.5 hPa Calm     96 % 0.0 mm
18:37 10.9 °C 10.3 °C 1016.1 hPa Calm     96 % 0.0 mm
18:42 10.9 °C 10.3 °C 1016.1 hPa Calm     96 % 0.0 mm
18:52 10.7 °C 10.1 °C 1016.1 hPa Calm     96 % 0.0 mm
19:02 10.6 °C 10.0 °C 1016.1 hPa Calm     96 % 0.0 mm
19:07 10.5 °C 9.9 °C 1016.1 hPa Calm     96 % 0.0 mm
19:12 10.4 °C 9.9 °C 1016.1 hPa Calm     97 % 0.0 mm
19:17 10.4 °C 9.9 °C 1016.1 hPa Calm     97 % 0.0 mm
19:22 10.3 °C 9.8 °C 1016.1 hPa Calm     97 % 0.0 mm
19:27 10.2 °C 9.7 °C 1016.1 hPa Calm     97 % 0.0 mm
19:32 10.2 °C 9.7 °C 1016.1 hPa Calm     97 % 0.0 mm
19:37 10.1 °C 9.6 °C 1016.1 hPa Calm     97 % 0.0 mm
19:42 10.0 °C 9.5 °C 1016.1 hPa Calm     97 % 0.0 mm
19:52 9.9 °C 9.4 °C 1016.1 hPa Calm   1.6 km/h 97 % 0.0 mm
19:57 9.9 °C 9.4 °C 1016.1 hPa Calm     97 % 0.0 mm
20:02 9.9 °C 9.4 °C 1016.1 hPa Calm     97 % 0.0 mm
20:12 9.9 °C 9.4 °C 1016.1 hPa Calm     97 % 0.0 mm
20:17 10.0 °C 9.7 °C 1016.1 hPa Calm     98 % 0.0 mm
20:22 10.0 °C 9.5 °C 1016.1 hPa Calm     97 % 0.0 mm
20:32 9.9 °C 9.4 °C 1016.1 hPa Calm     97 % 0.0 mm
20:42 10.1 °C 9.8 °C 1016.1 hPa Calm     98 % 0.0 mm
20:52 9.9 °C 9.4 °C 1016.1 hPa Calm     97 % 0.0 mm
20:57 9.9 °C 9.4 °C 1016.1 hPa Calm     97 % 0.0 mm
21:02 9.8 °C 9.3 °C 1016.1 hPa Calm     97 % 0.0 mm
21:12 9.8 °C 9.5 °C 1016.1 hPa Calm     98 % 0.0 mm
21:17 9.8 °C 9.5 °C 1016.1 hPa Calm     98 % 0.0 mm
21:22 9.8 °C 9.5 °C 1016.1 hPa Calm     98 % 0.0 mm
21:27 9.8 °C 9.3 °C 1016.1 hPa Calm     97 % 0.0 mm
21:32 9.6 °C 9.1 °C 1016.1 hPa Calm     97 % 0.0 mm
21:37 9.5 °C 9.0 °C 1016.1 hPa Calm     97 % 0.0 mm
21:42 9.4 °C 8.9 °C 1016.1 hPa Calm     97 % 0.0 mm
21:47 9.4 °C 8.9 °C 1016.1 hPa Calm     97 % 0.0 mm
21:52 9.4 °C 9.1 °C 1016.1 hPa Calm     98 % 0.0 mm
21:57 9.3 °C 9.0 °C 1016.1 hPa Calm     98 % 0.0 mm
22:02 9.3 °C 9.0 °C 1016.1 hPa Calm     98 % 0.0 mm
22:07 9.3 °C 9.0 °C 1016.1 hPa Calm     98 % 0.0 mm
22:12 9.3 °C 9.0 °C 1016.1 hPa Calm     98 % 0.0 mm
22:17 9.3 °C 9.0 °C 1016.1 hPa Calm     98 % 0.0 mm
22:22 9.3 °C 9.0 °C 1016.1 hPa Calm     98 % 0.0 mm
22:32 9.3 °C 9.0 °C 1016.1 hPa Calm     98 % 0.0 mm
22:37 9.2 °C 8.9 °C 1016.1 hPa Calm     98 % 0.0 mm
22:42 9.2 °C 8.9 °C 1016.1 hPa Calm     98 % 0.0 mm
22:47 9.2 °C 8.9 °C 1016.1 hPa Calm     98 % 0.0 mm
22:52 9.2 °C 8.9 °C 1016.1 hPa Calm     98 % 0.0 mm
22:57 9.3 °C 9.0 °C 1016.1 hPa Calm     98 % 0.0 mm
23:02 9.3 °C 9.0 °C 1016.1 hPa Calm     98 % 0.0 mm
23:07 9.3 °C 9.0 °C 1016.1 hPa Calm     98 % 0.0 mm
23:12 9.3 °C 9.0 °C 1015.8 hPa Calm     98 % 0.0 mm
23:17 9.3 °C 9.0 °C 1015.8 hPa Calm     98 % 0.0 mm
23:22 9.2 °C 8.9 °C 1016.1 hPa Calm     98 % 0.0 mm
23:27 9.2 °C 8.9 °C 1016.1 hPa Calm     98 % 0.0 mm
23:32 9.2 °C 8.9 °C 1016.1 hPa Calm     98 % 0.0 mm
23:37 9.2 °C 8.9 °C 1015.8 hPa Calm     98 % 0.0 mm
23:42 9.2 °C 8.9 °C 1015.8 hPa Calm     98 % 0.0 mm
23:47 9.2 °C 8.9 °C 1016.1 hPa Calm     98 % 0.0 mm
23:52 9.2 °C 8.9 °C 1016.1 hPa Calm     98 % 0.0 mm
23:57 9.1 °C 8.8 °C 1016.1 hPa Calm     98 % 0.0 mm
Meteo18
Compliments of Weather Underground - 4 mb

Script developed by  Jim McMurry - jmcmurry@mwt.net Adapted for the template by  Wim van der Kuil - Leuven-Template.eu

You find our weather info also at:

European Weather Network

Weather Underground

Equipment we use:

Weather-station
Davis Vue

Weather-program
Meteohub

Weather-server
Raspberry PI 2 B+

Provider
1 and 1

Davis Vue

Meteohub

Raspberry PI 2 B+

1 and 1